Cork, Kentucky
Current Conditions -  °F | °C
As of 4:35 AM on Sunday 26 Oct 2014 (Local Time) from KGLW Reporting Station
Moderate Fog Moderate Fog  
Wind Chill: 49°   Ceiling: 100
Heat Index: 49°   Visibility: 0.25mi
Dew Point: 49°   Wind: 0mph
Humidity: 100%   Direction: NA
Pressure: 30.01"   Gusts: NA
Location:  36.9886°N, 85.5829°W
Report Text: KGLW 260935Z AUTO 00000KT 1/4SM FG OVC001 10/10 A3001 RMK AO2 T00960096
Loading
Personal Weather Stations






























Interactive Weather Map
Tropical Storm Tracking
New forecast layout! Learn more

10-Day Weather Forecast

Advertisements
Track Severe Weather on mobile